createdAt,value
2019-03-23T00:02:13.591Z,5.70
2019-03-23T00:04:45.186Z,5.60
2019-03-23T00:07:16.327Z,5.75
2019-03-23T00:09:47.455Z,5.83
2019-03-23T00:12:18.574Z,5.58
2019-03-23T00:14:49.143Z,5.77
2019-03-23T00:17:20.350Z,5.75
2019-03-23T00:19:51.479Z,5.42
2019-03-23T00:22:22.692Z,5.50
2019-03-23T00:24:53.835Z,5.87
2019-03-23T00:27:24.499Z,4.97
2019-03-23T00:29:55.700Z,5.00
2019-03-23T00:32:26.960Z,5.65
2019-03-23T00:34:58.099Z,4.70
2019-03-23T00:37:29.379Z,5.35
2019-03-23T00:40:01.647Z,5.35
2019-03-23T00:42:32.854Z,5.78
2019-03-23T00:45:03.885Z,5.40
2019-03-23T00:47:35.346Z,5.45
2019-03-23T00:50:07.015Z,5.17
2019-03-23T00:52:38.268Z,5.45
2019-03-23T00:55:12.294Z,5.37
2019-03-23T00:57:49.507Z,4.97
2019-03-23T01:00:20.331Z,4.83
2019-03-23T01:02:50.907Z,3.80
2019-03-23T01:05:22.141Z,3.83
2019-03-23T01:07:53.264Z,4.37
2019-03-23T01:10:23.863Z,3.67
2019-03-23T01:12:54.997Z,4.17
2019-03-23T01:15:26.129Z,4.62
2019-03-23T01:17:57.355Z,4.80
2019-03-23T01:20:30.334Z,4.25
2019-03-23T01:23:01.534Z,4.17
2019-03-23T01:25:32.652Z,4.20
2019-03-23T01:28:03.864Z,4.10
2019-03-23T01:30:35.263Z,3.63
2019-03-23T01:33:06.405Z,4.00
2019-03-23T01:35:37.741Z,4.12
2019-03-23T01:38:08.950Z,4.08
2019-03-23T01:40:39.601Z,4.23
2019-03-23T01:43:11.207Z,4.12
2019-03-23T01:45:42.043Z,3.30
2019-03-23T01:48:13.403Z,3.37
2019-03-23T01:50:44.843Z,3.90
2019-03-23T01:53:16.279Z,3.40
2019-03-23T01:55:47.848Z,3.47
2019-03-23T01:58:18.745Z,3.10
2019-03-23T02:00:50.080Z,4.55
2019-03-23T02:03:21.558Z,3.95
2019-03-23T02:05:52.387Z,3.63
2019-03-23T02:08:23.864Z,4.20
2019-03-23T02:10:55.192Z,4.00
2019-03-23T02:13:26.659Z,4.37
2019-03-23T02:15:57.512Z,4.87
2019-03-23T02:18:29.028Z,3.95
2019-03-23T02:21:01.543Z,4.30
2019-03-23T02:23:32.367Z,4.60
2019-03-23T02:26:04.381Z,4.80
2019-03-23T02:28:35.810Z,4.42
2019-03-23T02:31:07.445Z,3.97
2019-03-23T02:33:39.128Z,4.00
2019-03-23T02:36:09.860Z,3.53
2019-03-23T02:38:40.696Z,4.37
2019-03-23T02:41:11.638Z,4.20
2019-03-23T02:43:42.360Z,4.27
2019-03-23T02:46:13.687Z,3.83
2019-03-23T02:48:44.424Z,4.33
2019-03-23T02:51:15.164Z,4.23
2019-03-23T02:53:46.061Z,3.90
2019-03-23T02:56:17.487Z,4.40
2019-03-23T02:58:49.915Z,4.08
2019-03-23T03:01:21.294Z,3.92
2019-03-23T03:03:52.635Z,3.85
2019-03-23T03:06:24.157Z,3.98
2019-03-23T03:08:54.904Z,4.20
2019-03-23T03:11:26.464Z,4.35
2019-03-23T03:13:57.199Z,4.30
2019-03-23T03:16:28.051Z,4.33
2019-03-23T03:18:58.775Z,4.10
2019-03-23T03:21:30.139Z,3.55
2019-03-23T03:24:01.557Z,4.03
2019-03-23T03:26:32.316Z,3.70
2019-03-23T03:29:03.045Z,3.90
2019-03-23T03:31:33.948Z,4.10
2019-03-23T03:34:04.803Z,4.17
2019-03-23T03:36:35.538Z,3.87
2019-03-23T03:39:07.925Z,4.07
2019-03-23T03:41:39.068Z,3.30
2019-03-23T03:44:09.918Z,3.90
2019-03-23T03:46:40.729Z,4.10
2019-03-23T03:49:12.963Z,3.93
2019-03-23T03:51:43.886Z,4.53
2019-03-23T03:54:14.798Z,4.17
2019-03-23T03:56:45.757Z,4.60
2019-03-23T03:59:16.666Z,4.40
2019-03-23T04:01:47.498Z,4.77
2019-03-23T04:04:18.543Z,4.90
2019-03-23T04:06:49.452Z,4.17
2019-03-23T04:09:40.468Z,4.67
2019-03-23T04:12:11.430Z,3.73
2019-03-23T04:14:42.232Z,4.00
2019-03-23T04:17:13.050Z,4.20
2019-03-23T04:19:43.880Z,3.70
2019-03-23T04:22:14.706Z,3.37
2019-03-23T04:24:45.591Z,3.87
2019-03-23T04:27:16.463Z,4.30
2019-03-23T04:29:47.280Z,4.40
2019-03-23T04:32:18.175Z,4.90
2019-03-23T04:34:48.970Z,4.83
2019-03-23T04:37:19.796Z,5.20
2019-03-23T04:39:50.530Z,4.53
2019-03-23T04:42:21.346Z,3.80
2019-03-23T04:44:52.237Z,4.40
2019-03-23T04:47:22.988Z,4.03
2019-03-23T04:49:53.752Z,3.97
2019-03-23T04:52:24.523Z,4.20
2019-03-23T04:54:55.408Z,3.77
2019-03-23T04:57:26.203Z,3.60
2019-03-23T04:59:57.074Z,4.30
2019-03-23T05:02:28.015Z,4.03
2019-03-23T05:04:58.771Z,3.97
2019-03-23T05:07:30.531Z,4.33
2019-03-23T05:10:01.359Z,4.37
2019-03-23T05:12:32.127Z,4.43
2019-03-23T05:15:03.031Z,4.40
2019-03-23T05:17:33.806Z,4.67
2019-03-23T05:20:05.513Z,4.77
2019-03-23T05:22:36.411Z,4.37
2019-03-23T05:25:08.688Z,4.13
2019-03-23T05:27:41.067Z,4.93
2019-03-23T05:30:12.091Z,4.43
2019-03-23T05:32:42.988Z,4.50
2019-03-23T05:35:13.936Z,4.77
2019-03-23T05:37:44.696Z,4.33
2019-03-23T05:40:17.523Z,5.33
2019-03-23T05:42:48.260Z,4.40
2019-03-23T05:45:19.038Z,4.20
2019-03-23T05:47:49.980Z,4.10
2019-03-23T05:50:20.892Z,4.30
2019-03-23T05:52:51.820Z,4.30
2019-03-23T05:55:22.585Z,4.10
2019-03-23T05:57:53.436Z,3.97
2019-03-23T06:00:25.132Z,3.30
2019-03-23T06:02:55.995Z,3.77
2019-03-23T06:05:26.766Z,3.97
2019-03-23T06:07:58.791Z,4.63
2019-03-23T06:10:29.722Z,4.00
2019-03-23T06:13:00.613Z,3.80
2019-03-23T06:15:32.319Z,4.10
2019-03-23T06:18:03.160Z,4.17
2019-03-23T06:20:33.919Z,4.00
2019-03-23T06:23:04.953Z,4.37
2019-03-23T06:25:35.829Z,4.33
2019-03-23T06:28:06.627Z,4.40
2019-03-23T06:30:37.483Z,3.93
2019-03-23T06:33:09.281Z,4.30
2019-03-23T06:35:40.084Z,4.53
2019-03-23T06:38:10.815Z,4.30
2019-03-23T06:40:41.751Z,4.10
2019-03-23T06:43:12.617Z,4.17
2019-03-23T06:45:43.361Z,3.47
2019-03-23T06:48:14.132Z,4.10
2019-03-23T06:50:45.935Z,4.10
2019-03-23T06:53:16.658Z,4.13
2019-03-23T06:55:47.487Z,4.47
2019-03-23T06:58:18.801Z,4.50
2019-03-23T07:00:49.675Z,4.93
2019-03-23T07:03:21.003Z,4.30
2019-03-23T07:05:51.760Z,4.33
2019-03-23T07:08:31.557Z,4.37
2019-03-23T07:10:55.027Z,4.40
2019-03-23T07:13:25.870Z,4.13
2019-03-23T07:15:56.644Z,4.30
2019-03-23T07:18:27.406Z,3.73
2019-03-23T07:20:58.816Z,4.08
2019-03-23T07:23:30.396Z,4.05
2019-03-23T07:26:01.788Z,3.80
2019-03-23T07:28:33.092Z,4.00
2019-03-23T07:31:04.411Z,3.70
2019-03-23T07:33:35.746Z,4.37
2019-03-23T07:36:07.083Z,4.00
2019-03-23T07:38:39.363Z,4.25
2019-03-23T07:41:10.899Z,4.10
2019-03-23T07:43:42.317Z,4.45
2019-03-23T07:46:13.619Z,3.87
2019-03-23T07:48:45.026Z,4.22
2019-03-23T07:51:16.492Z,4.12
2019-03-23T07:53:47.850Z,4.25
2019-03-23T07:56:19.182Z,4.58
2019-03-23T07:58:50.484Z,4.20
2019-03-23T08:01:21.805Z,4.17
2019-03-23T08:03:53.108Z,4.10
2019-03-23T08:06:24.511Z,4.10
2019-03-23T08:08:55.924Z,4.37
2019-03-23T08:11:27.239Z,4.30
2019-03-23T08:13:58.696Z,4.20
2019-03-23T08:16:30.108Z,4.70
2019-03-23T08:19:01.436Z,4.67
2019-03-23T08:21:32.855Z,5.05
2019-03-23T08:24:04.309Z,5.08
2019-03-23T08:26:35.724Z,5.17
2019-03-23T08:29:07.039Z,5.40
2019-03-23T08:31:38.455Z,4.95
2019-03-23T08:34:09.879Z,5.05
2019-03-23T08:36:41.223Z,5.67
2019-03-23T08:39:12.607Z,5.17
2019-03-23T08:41:43.975Z,5.33
2019-03-23T08:44:15.515Z,5.17
2019-03-23T08:46:46.984Z,5.75
2019-03-23T08:49:18.418Z,5.65
2019-03-23T08:51:52.284Z,6.05
2019-03-23T08:54:23.591Z,5.83
2019-03-23T08:56:55.122Z,5.72
2019-03-23T08:59:26.647Z,5.75
2019-03-23T09:01:57.994Z,9.43
2019-03-23T09:04:29.478Z,9.58
2019-03-23T09:07:00.892Z,8.80
2019-03-23T09:09:32.680Z,10.78
2019-03-23T09:12:09.858Z,11.68
2019-03-23T09:14:44.457Z,8.80
2019-03-23T09:17:16.061Z,8.18
2019-03-23T09:19:47.607Z,8.95
2019-03-23T09:22:19.100Z,10.45
2019-03-23T09:24:50.452Z,8.83
2019-03-23T09:27:22.136Z,9.33
2019-03-23T09:29:53.643Z,8.48
2019-03-23T09:32:25.014Z,9.25
2019-03-23T09:34:56.647Z,8.33
2019-03-23T09:37:28.099Z,6.97
2019-03-23T09:40:10.043Z,8.25
2019-03-23T09:42:32.560Z,8.15
2019-03-23T09:45:04.500Z,9.03
2019-03-23T09:47:36.066Z,10.45
2019-03-23T09:50:07.895Z,10.55
2019-03-23T09:52:40.991Z,11.90
2019-03-23T09:55:15.050Z,11.97
2019-03-23T09:57:46.549Z,12.33
2019-03-23T10:00:17.911Z,11.90
2019-03-23T10:02:49.349Z,12.88
2019-03-23T10:05:20.786Z,12.60
2019-03-23T10:07:52.142Z,12.85
2019-03-23T10:10:23.523Z,18.60
2019-03-23T10:12:54.901Z,16.70
2019-03-23T10:15:26.335Z,14.65
2019-03-23T10:17:57.795Z,13.40
2019-03-23T10:20:29.190Z,12.88
2019-03-23T10:23:00.647Z,12.75
2019-03-23T10:25:32.169Z,13.22
2019-03-23T10:28:03.663Z,13.62
2019-03-23T10:30:35.159Z,13.15
2019-03-23T10:33:06.572Z,12.80
2019-03-23T10:35:38.027Z,13.68
2019-03-23T10:38:09.402Z,14.10
2019-03-23T10:40:42.929Z,14.40
2019-03-23T10:43:14.020Z,13.40
2019-03-23T10:45:45.470Z,13.35
2019-03-23T10:48:17.050Z,13.35
2019-03-23T10:50:48.653Z,13.95
2019-03-23T10:53:23.157Z,15.20
2019-03-23T10:55:53.119Z,15.18
2019-03-23T10:58:24.571Z,13.72
2019-03-23T11:00:56.004Z,13.22
2019-03-23T11:03:27.460Z,13.83
2019-03-23T11:05:58.911Z,13.85
2019-03-23T11:08:30.268Z,13.38
2019-03-23T11:11:01.621Z,13.72
2019-03-23T11:13:33.103Z,13.43
2019-03-23T11:16:04.631Z,12.90
2019-03-23T11:18:37.742Z,12.60
2019-03-23T11:21:09.140Z,12.13
2019-03-23T11:23:40.584Z,13.95
2019-03-23T11:26:12.135Z,14.90
2019-03-23T11:28:43.483Z,13.65
2019-03-23T11:31:14.933Z,12.33
2019-03-23T11:33:46.343Z,13.65
2019-03-23T11:36:18.727Z,13.05
2019-03-23T11:38:50.115Z,10.72
2019-03-23T11:41:21.567Z,11.00
2019-03-23T11:43:52.927Z,14.63
2019-03-23T11:46:24.348Z,15.75
2019-03-23T11:48:55.689Z,12.93
2019-03-23T11:51:27.139Z,13.48
2019-03-23T11:53:58.492Z,12.90
2019-03-23T11:56:30.581Z,12.00
2019-03-23T11:59:02.371Z,12.33
2019-03-23T12:01:33.712Z,12.20
2019-03-23T12:04:06.287Z,12.70
2019-03-23T12:06:37.623Z,13.88
2019-03-23T12:09:09.448Z,13.85
2019-03-23T12:11:40.904Z,12.40
2019-03-23T12:14:12.308Z,11.80
2019-03-23T12:16:43.806Z,11.75
2019-03-23T12:19:15.254Z,11.60
2019-03-23T12:21:46.579Z,10.95
2019-03-23T12:24:17.923Z,10.20
2019-03-23T12:26:49.336Z,11.20
2019-03-23T12:29:20.811Z,11.40
2019-03-23T12:31:52.138Z,11.12
2019-03-23T12:34:23.556Z,10.70
2019-03-23T12:36:55.001Z,11.15
2019-03-23T12:39:26.471Z,11.95
2019-03-23T12:41:57.873Z,9.98
2019-03-23T12:44:29.380Z,10.85
2019-03-23T12:47:00.823Z,10.55
2019-03-23T12:49:32.170Z,10.93
2019-03-23T12:52:03.566Z,9.65
2019-03-23T12:54:34.891Z,9.85
2019-03-23T12:57:06.399Z,10.25
2019-03-23T12:59:38.071Z,10.20
2019-03-23T13:02:09.515Z,9.85
2019-03-23T13:04:40.919Z,12.47
2019-03-23T13:07:12.414Z,11.35
2019-03-23T13:09:43.840Z,11.45
2019-03-23T13:12:15.193Z,10.93
2019-03-23T13:14:46.631Z,10.45
2019-03-23T13:17:18.096Z,9.30
2019-03-23T13:19:49.479Z,10.98
2019-03-23T13:22:20.807Z,10.13
2019-03-23T13:24:52.178Z,10.30
2019-03-23T13:27:23.602Z,9.10
2019-03-23T13:29:55.038Z,10.28
2019-03-23T13:32:26.503Z,11.20
2019-03-23T13:34:57.910Z,10.80
2019-03-23T13:37:29.235Z,10.03
2019-03-23T13:40:00.354Z,9.57
2019-03-23T13:42:31.816Z,9.03
2019-03-23T13:45:03.835Z,8.47
2019-03-23T13:47:35.220Z,9.33
2019-03-23T13:50:07.440Z,9.33
2019-03-23T13:52:38.918Z,11.05
2019-03-23T13:55:25.784Z,11.70
2019-03-23T13:58:03.143Z,11.78
2019-03-23T14:00:34.487Z,11.95
2019-03-23T14:03:06.031Z,11.95
2019-03-23T14:05:37.276Z,11.30
2019-03-23T14:08:08.690Z,11.38
2019-03-23T14:10:40.220Z,12.05
2019-03-23T14:13:11.587Z,12.20
2019-03-23T14:15:42.958Z,12.73
2019-03-23T14:18:17.383Z,12.45
2019-03-23T14:20:48.562Z,13.30
2019-03-23T14:23:19.976Z,12.20
2019-03-23T14:25:51.319Z,13.68
2019-03-23T14:28:22.732Z,12.80
2019-03-23T14:30:55.191Z,12.63
2019-03-23T14:33:26.546Z,12.63
2019-03-23T14:35:57.899Z,11.97
2019-03-23T14:38:29.333Z,12.00
2019-03-23T14:41:00.679Z,12.20
2019-03-23T14:43:32.048Z,12.65
2019-03-23T14:46:03.398Z,12.58
2019-03-23T14:48:34.855Z,12.37
2019-03-23T14:51:06.376Z,12.40
2019-03-23T14:53:37.740Z,12.85
2019-03-23T14:56:08.955Z,11.50
2019-03-23T14:58:40.363Z,13.45
2019-03-23T15:01:11.722Z,14.68
2019-03-23T15:03:43.155Z,14.25
2019-03-23T15:06:14.268Z,13.43
2019-03-23T15:08:45.715Z,12.18
2019-03-23T15:11:17.759Z,12.37
2019-03-23T15:13:48.787Z,11.57
2019-03-23T15:16:19.916Z,10.73
2019-03-23T15:18:51.251Z,11.12
2019-03-23T15:21:22.447Z,12.20
2019-03-23T15:23:53.575Z,12.73
2019-03-23T15:26:24.795Z,12.00
2019-03-23T15:28:56.219Z,12.37
2019-03-23T15:31:27.716Z,12.25
2019-03-23T15:33:58.811Z,12.97
2019-03-23T15:36:30.846Z,12.70
2019-03-23T15:39:02.216Z,13.90
2019-03-23T15:41:33.633Z,14.35
2019-03-23T15:44:05.408Z,16.15
2019-03-23T15:46:36.743Z,15.55
2019-03-23T15:49:08.084Z,13.88
2019-03-23T15:51:39.447Z,15.35
2019-03-23T15:54:11.103Z,15.93
2019-03-23T15:56:42.579Z,15.38
2019-03-23T15:59:13.997Z,14.10
2019-03-23T16:01:45.455Z,13.38
2019-03-23T16:04:16.790Z,15.35
2019-03-23T16:06:48.199Z,14.13
2019-03-23T16:09:20.588Z,14.68
2019-03-23T16:11:53.323Z,14.30
2019-03-23T16:14:24.643Z,15.13
2019-03-23T16:16:55.971Z,15.38
2019-03-23T16:19:27.364Z,13.98
2019-03-23T16:21:58.463Z,15.10
2019-03-23T16:24:30.140Z,22.17
2019-03-23T16:27:01.710Z,15.03
2019-03-23T16:29:33.135Z,13.68
2019-03-23T16:32:04.549Z,16.00
2019-03-23T16:34:36.152Z,13.25
2019-03-23T16:37:07.523Z,13.30
2019-03-23T16:39:38.963Z,12.82
2019-03-23T16:42:10.431Z,12.63
2019-03-23T16:44:41.792Z,12.78
2019-03-23T16:47:13.135Z,11.80
2019-03-23T16:49:44.782Z,11.22
2019-03-23T16:52:16.435Z,10.53
2019-03-23T16:54:47.769Z,11.03
2019-03-23T16:57:19.103Z,10.95
2019-03-23T16:59:50.624Z,10.82
2019-03-23T17:02:21.955Z,9.90
2019-03-23T17:04:53.323Z,9.60
2019-03-23T17:07:24.635Z,8.58
2019-03-23T17:09:55.951Z,8.75
2019-03-23T17:12:27.347Z,8.95
2019-03-23T17:14:58.679Z,8.73
2019-03-23T17:17:30.027Z,9.38
2019-03-23T17:20:02.496Z,10.55
2019-03-23T17:22:34.954Z,10.82
2019-03-23T17:25:06.654Z,10.65
2019-03-23T17:27:38.035Z,12.50
2019-03-23T17:30:11.267Z,11.25
2019-03-23T17:32:42.619Z,10.08
2019-03-23T17:35:14.082Z,10.48
2019-03-23T17:37:45.724Z,12.60
2019-03-23T17:40:17.063Z,13.05
2019-03-23T17:42:48.563Z,13.13
2019-03-23T17:45:28.359Z,13.88
2019-03-23T17:47:59.720Z,12.15
2019-03-23T17:50:31.083Z,13.38
2019-03-23T17:53:02.504Z,13.53
2019-03-23T17:55:33.884Z,14.38
2019-03-23T17:58:05.485Z,15.72
2019-03-23T18:00:36.883Z,15.05
2019-03-23T18:03:08.430Z,13.93
2019-03-23T18:05:40.377Z,16.10
2019-03-23T18:08:11.799Z,15.63
2019-03-23T18:10:43.394Z,15.90
2019-03-23T18:13:16.662Z,15.53
2019-03-23T18:15:47.851Z,14.87
2019-03-23T18:18:19.284Z,11.90
2019-03-23T18:20:50.697Z,12.88
2019-03-23T18:23:22.041Z,13.15
2019-03-23T18:25:53.375Z,12.75
2019-03-23T18:28:24.736Z,13.58
2019-03-23T18:30:56.081Z,13.55
2019-03-23T18:33:27.456Z,12.78
2019-03-23T18:35:59.015Z,12.63
2019-03-23T18:38:30.370Z,13.40
2019-03-23T18:41:01.727Z,12.88
2019-03-23T18:43:33.171Z,14.75
2019-03-23T18:46:04.723Z,13.28
2019-03-23T18:48:36.063Z,14.83
2019-03-23T18:51:07.600Z,15.93
2019-03-23T18:53:39.158Z,16.30
2019-03-23T18:56:10.598Z,16.35
2019-03-23T18:58:41.971Z,18.02
2019-03-23T19:01:13.311Z,18.80
2019-03-23T19:03:45.123Z,17.32
2019-03-23T19:06:16.471Z,17.75
2019-03-23T19:08:47.896Z,16.73
2019-03-23T19:11:19.328Z,16.95
2019-03-23T19:13:50.711Z,16.05
2019-03-23T19:16:22.064Z,16.45
2019-03-23T19:18:53.911Z,16.52
2019-03-23T19:21:25.276Z,15.83
2019-03-23T19:23:56.885Z,15.05
2019-03-23T19:26:28.434Z,15.15
2019-03-23T19:28:59.795Z,15.30
2019-03-23T19:31:31.182Z,22.58
2019-03-23T19:34:02.638Z,17.65
2019-03-23T19:36:33.987Z,15.48
2019-03-23T19:39:08.504Z,16.20
2019-03-23T19:41:39.958Z,15.30
2019-03-23T19:44:11.484Z,15.23
2019-03-23T19:46:42.871Z,23.38
2019-03-23T19:49:14.392Z,16.45
2019-03-23T19:51:45.867Z,16.48
2019-03-23T19:54:17.323Z,14.28
2019-03-23T19:56:48.657Z,12.40
2019-03-23T19:59:20.047Z,13.45
2019-03-23T20:01:51.460Z,12.70
2019-03-23T20:04:22.795Z,12.70
2019-03-23T20:06:54.190Z,12.98
2019-03-23T20:09:25.677Z,12.58
2019-03-23T20:11:57.054Z,12.90
2019-03-23T20:14:28.599Z,13.25
2019-03-23T20:16:59.947Z,13.65
2019-03-23T20:19:31.475Z,13.25
2019-03-23T20:22:02.803Z,15.20
2019-03-23T20:24:34.163Z,16.25
2019-03-23T20:27:05.720Z,16.87
2019-03-23T20:29:37.075Z,15.53
2019-03-23T20:32:08.523Z,16.05
2019-03-23T20:34:39.957Z,16.00
2019-03-23T20:37:11.281Z,16.02
2019-03-23T20:39:42.703Z,15.03
2019-03-23T20:42:15.075Z,19.37
2019-03-23T20:44:46.395Z,17.32
2019-03-23T20:47:17.887Z,16.42
2019-03-23T20:49:49.523Z,16.30
2019-03-23T20:52:21.033Z,17.45
2019-03-23T20:54:52.452Z,16.70
2019-03-23T20:57:24.448Z,15.93
2019-03-23T20:59:55.825Z,17.60
2019-03-23T21:02:27.355Z,16.85
2019-03-23T21:04:58.767Z,17.12
2019-03-23T21:07:30.200Z,15.60
2019-03-23T21:10:01.597Z,16.12
2019-03-23T21:12:33.080Z,14.93
2019-03-23T21:15:05.090Z,15.65
2019-03-23T21:17:36.579Z,16.35
2019-03-23T21:20:08.206Z,16.97
2019-03-23T21:22:39.579Z,15.58
2019-03-23T21:25:13.451Z,15.25
2019-03-23T21:27:44.766Z,14.70
2019-03-23T21:30:22.997Z,15.53
2019-03-23T21:32:55.979Z,16.70
2019-03-23T21:35:27.319Z,15.20
2019-03-23T21:37:58.704Z,13.75
2019-03-23T21:40:30.203Z,14.38
2019-03-23T21:43:01.535Z,13.88
2019-03-23T21:45:33.054Z,13.80
2019-03-23T21:48:05.084Z,14.07
2019-03-23T21:50:46.822Z,13.53
2019-03-23T21:53:09.603Z,13.68
2019-03-23T21:55:40.967Z,14.20
2019-03-23T21:58:13.428Z,13.40
2019-03-23T22:00:44.811Z,13.90
2019-03-23T22:03:16.157Z,14.40
2019-03-23T22:06:01.591Z,15.25
2019-03-23T22:08:32.660Z,15.72
2019-03-23T22:11:04.131Z,14.43
2019-03-23T22:13:35.475Z,14.43
2019-03-23T22:16:06.819Z,14.65
2019-03-23T22:18:38.171Z,14.25
2019-03-23T22:21:09.611Z,13.88
2019-03-23T22:23:41.060Z,14.35
2019-03-23T22:26:12.444Z,14.83
2019-03-23T22:28:43.823Z,14.55
2019-03-23T22:31:15.598Z,15.78
2019-03-23T22:33:46.983Z,15.32
2019-03-23T22:36:18.376Z,14.33
2019-03-23T22:38:49.836Z,15.00
2019-03-23T22:41:21.239Z,15.70
2019-03-23T22:43:52.615Z,15.20
2019-03-23T22:46:23.972Z,14.18
2019-03-23T22:48:55.378Z,16.25
2019-03-23T22:51:26.829Z,16.82
2019-03-23T22:53:58.179Z,16.48
2019-03-23T22:56:29.641Z,22.22
2019-03-23T22:59:00.977Z,16.32
2019-03-23T23:01:32.500Z,15.38
2019-03-23T23:04:03.979Z,16.12
2019-03-23T23:06:35.460Z,15.70
2019-03-23T23:09:09.581Z,16.32
2019-03-23T23:11:40.919Z,14.87
2019-03-23T23:14:13.864Z,15.48
2019-03-23T23:16:45.214Z,15.30
2019-03-23T23:19:16.607Z,15.30
2019-03-23T23:21:47.992Z,14.07
2019-03-23T23:24:19.368Z,16.37
2019-03-23T23:26:50.954Z,15.08
2019-03-23T23:29:22.403Z,15.98
2019-03-23T23:31:53.807Z,15.70
2019-03-23T23:34:25.327Z,15.98
2019-03-23T23:36:57.036Z,15.03
2019-03-23T23:39:29.540Z,15.48
2019-03-23T23:42:00.868Z,15.93
2019-03-23T23:44:32.447Z,15.08
2019-03-23T23:47:03.780Z,16.20
2019-03-23T23:49:36.232Z,16.95
2019-03-23T23:52:07.691Z,17.77
2019-03-23T23:54:39.093Z,15.43
2019-03-23T23:57:10.511Z,16.40
2019-03-23T23:59:41.923Z,15.15
